Time;durP1;ratioP1;P1;durP2;ratioP2;P2;SDS_P1;SDS_P2;PMS_P1;PMS_P2;Temp;Humidity;BMP_temperature;BMP_pressure;BME280_temperature;BME280_humidity;BME280_pressure;Samples;Min_cycle;Max_cycle;Signal;HPM_P1;HPM_P2
2023/03/10 00:01:09;;;;;;;1.70;0.90;;;;;;;4.22;83.62;94585.73;110145;1278;23057;-66
2023/03/10 00:04:51;;;;;;;1.90;0.80;;;;;;;4.21;83.86;94587.66;110151;1278;23011;-66
2023/03/10 00:08:38;;;;;;;;;;;;;;;;;;;;;
2023/03/10 00:16:10;;;;;;;;;;;;;;;;;;;;;
2023/03/10 00:19:44;;;;;;;;;;;;;;;;;;;;;
2023/03/10 00:27:26;;;;;;;4.20;1.00;;;;;;;4.05;84.59;94591.48;110152;1278;22127;-66
2023/03/10 00:35:03;;;;;;;2.40;1.20;;;;;;;3.95;84.72;94586.18;110173;1278;22141;-66
2023/03/10 00:38:41;;;;;;;3.30;1.60;;;;;;;3.95;84.57;94580.27;110133;1278;22481;-66
2023/03/10 00:42:27;;;;;;;;;;;;;;;;;;;;;
2023/03/10 00:46:18;;;;;;;3.50;1.70;;;;;;;3.96;84.39;94572.77;110162;1278;22720;-66
2023/03/10 00:50:07;;;;;;;1.60;1.20;;;;;;;3.94;84.43;94573.31;110123;1278;22926;-66
2023/03/10 00:53:47;;;;;;;;;;;;;;;;;;;;;
2023/03/10 00:57:38;;;;;;;5.60;1.90;;;;;;;3.95;84.70;94566.88;110095;1278;22246;-66
2023/03/10 01:01:26;;;;;;;2.50;1.40;;;;;;;3.82;83.87;94567.51;110150;1278;23008;-66
2023/03/10 01:05:16;;;;;;;2.50;1.30;;;;;;;3.69;84.29;94570.59;110157;1278;22383;-66
2023/03/10 01:08:53;;;;;;;2.90;1.60;;;;;;;3.62;84.60;94571.16;110091;1278;22946;-66
2023/03/10 01:12:42;;;;;;;3.10;1.80;;;;;;;3.44;84.53;94573.56;110177;1278;22613;-66
2023/03/10 01:16:17;;;;;;;3.50;1.50;;;;;;;3.32;85.03;94570.19;110165;1278;22183;-66
2023/03/10 01:20:17;;;;;;;;;;;;;;;;;;;;;
2023/03/10 01:23:55;;;;;;;1.80;1.10;;;;;;;3.12;85.27;94565.97;110226;1278;22294;-66
2023/03/10 01:27:42;;;;;;;;;;;;;;;;;;;;;
2023/03/10 01:31:25;;;;;;;2.40;1.20;;;;;;;3.08;85.33;94556.62;107115;1278;22135;-66
2023/03/10 01:35:06;;;;;;;4.80;1.50;;;;;;;3.10;85.27;94557.30;110275;1278;22074;-66
2023/03/10 01:42:30;;;;;;;3.60;1.70;;;;;;;2.99;85.45;94570.75;110135;1278;22123;-66
2023/03/10 01:46:19;;;;;;;4.80;1.70;;;;;;;2.98;85.65;94574.92;110252;1278;22277;-66
2023/03/10 01:50:17;;;;;;;2.80;1.80;;;;;;;3.07;86.17;94578.69;110268;1278;22919;-66
2023/03/10 01:54:03;;;;;;;;;;;;;;;;;;;;;
2023/03/10 01:57:54;;;;;;;3.20;2.00;;;;;;;2.93;85.76;94576.34;110157;1278;22902;-66
2023/03/10 02:01:41;;;;;;;4.90;1.90;;;;;;;2.97;86.19;94574.92;110152;1278;22889;-66
2023/03/10 02:05:23;;;;;;;5.60;2.20;;;;;;;2.99;85.97;94574.39;110128;1278;22963;-66
2023/03/10 02:12:51;;;;;;;;;;;;;;;;;;;;;
2023/03/10 02:16:39;;;;;;;;;;;;;;;;;;;;;
2023/03/10 02:20:42;;;;;;;3.20;1.80;;;;;;;2.98;86.08;94576.14;110128;1278;22874;-66
2023/03/10 02:28:38;;;;;;;2.80;1.70;;;;;;;2.79;85.40;94579.54;110182;1278;22229;-66
2023/03/10 02:32:26;;;;;;;4.60;2.00;;;;;;;2.62;84.94;94574.23;110207;1278;22124;-65
2023/03/10 02:44:05;;;;;;;;;;;;;;;;;;;;;
2023/03/10 02:47:36;;;;;;;3.40;1.00;;;;;;;2.64;85.49;94564.33;110318;1278;22761;-66
2023/03/10 02:51:16;;;;;;;;;;;;;;;;;;;;;
2023/03/10 02:55:07;;;;;;;2.80;1.30;;;;;;;2.52;85.17;94561.61;110214;1278;22291;-66
2023/03/10 02:58:56;;;;;;;1.60;1.00;;;;;;;2.42;85.08;94554.70;110325;1278;22172;-65
2023/03/10 03:02:19;;;;;;;4.30;2.30;;;;;;;2.34;85.20;94554.40;110179;1278;22114;-65
2023/03/10 03:09:57;;;;;;;1.40;1.10;;;;;;;2.25;85.11;94556.50;110184;1278;22319;-66
2023/03/10 03:13:46;;;;;;;3.20;0.90;;;;;;;2.14;85.27;94555.49;110250;1278;22899;-66
2023/03/10 03:17:35;;;;;;;1.50;0.80;;;;;;;2.02;85.29;94554.15;110277;1278;22213;-66
2023/03/10 03:21:16;;;;;;;;;;;;;;;;;;;;;
2023/03/10 03:24:52;;;;;;;1.60;0.90;;;;;;;1.80;85.60;94552.29;110077;1278;22935;-65
2023/03/10 03:28:43;;;;;;;1.70;1.00;;;;;;;1.82;86.23;94551.42;110167;1263;22145;-65
2023/03/10 03:32:01;;;;;;;;;;;;;;;;;;;;;
2023/03/10 03:35:56;;;;;;;3.60;1.10;;;;;;;1.91;86.39;94543.41;110111;1279;22479;-65
2023/03/10 03:39:46;;;;;;;1.90;1.20;;;;;;;1.97;86.57;94543.42;110079;1279;22761;-65
2023/03/10 03:43:33;;;;;;;;;;;;;;;;;;;;;
2023/03/10 03:47:24;;;;;;;1.60;0.90;;;;;;;1.98;86.82;94538.37;110028;1279;22122;-65
2023/03/10 03:54:55;;;;;;;1.60;0.70;;;;;;;2.11;86.91;94531.91;110065;1279;22933;-65
2023/03/10 03:58:43;;;;;;;2.50;1.30;;;;;;;2.20;87.05;94530.49;110011;1279;22818;-65
2023/03/10 04:02:33;;;;;;;4.40;1.20;;;;;;;2.20;86.26;94524.77;110120;1279;22076;-66
2023/03/10 04:06:22;;;;;;;1.00;0.70;;;;;;;2.16;86.17;94528.61;110094;1270;22192;-66
2023/03/10 04:09:58;;;;;;;;;;;;;;;;;;;;;
2023/03/10 04:13:49;;;;;;;1.40;0.90;;;;;;;2.18;86.42;94525.98;110085;1279;22136;-66
2023/03/10 04:17:38;;;;;;;2.00;0.70;;;;;;;2.16;86.16;94525.48;110009;1279;22892;-66
2023/03/10 04:21:20;;;;;;;5.90;2.70;;;;;;;2.10;86.36;94519.43;110057;1279;22923;-66
2023/03/10 04:25:09;;;;;;;3.20;2.80;;;;;;;2.04;86.51;94512.00;110131;1279;22188;-66
2023/03/10 04:28:58;;;;;;;4.90;3.20;;;;;;;2.02;86.26;94508.88;110021;1279;22121;-66
2023/03/10 04:32:47;;;;;;;4.60;1.50;;;;;;;1.97;85.97;94507.68;110044;1279;22109;-65
2023/03/10 04:36:44;;;;;;;1.40;0.90;;;;;;;1.90;86.19;94507.87;110008;1275;22303;-66
2023/03/10 04:40:26;;;;;;;;;;;;;;;;;;;;;
2023/03/10 04:44:10;;;;;;;;;;;;;;;;;;;;;
2023/03/10 04:52:06;;;;;;;3.80;1.70;;;;;;;1.70;86.39;94495.61;110076;1279;22861;-62
2023/03/10 04:55:55;;;;;;;1.90;1.20;;;;;;;1.58;86.54;94501.18;110028;1279;22146;-62
2023/03/10 04:59:44;;;;;;;2.20;1.30;;;;;;;1.45;86.69;94504.14;110046;1279;22228;-62
2023/03/10 05:03:17;;;;;;;;;;;;;;;;;;;;;
2023/03/10 05:07:05;;;;;;;;;;;;;;;;;;;;;
2023/03/10 05:10:57;;;;;;;9.90;5.10;;;;;;;1.37;87.44;94508.14;110042;1279;22205;-62
2023/03/10 05:14:44;;;;;;;30.30;15.10;;;;;;;1.37;88.51;94519.24;110047;1267;22286;-62
2023/03/10 05:18:19;;;;;;;19.30;9.70;;;;;;;1.46;88.26;94515.06;110086;1279;22192;-62
2023/03/10 05:21:24;;;;;;;39.30;20.80;;;;;;;1.59;88.13;94509.33;110051;1279;22393;-62
2023/03/10 05:24:57;;;;;;;50.60;25.60;;;;;;;1.72;88.39;94509.14;110052;1279;22311;-62
2023/03/10 05:28:30;;;;;;;;;;;;;;;;;;;;;
2023/03/10 05:32:20;;;;;;;3.80;2.00;;;;;;;2.05;88.38;94505.22;110160;1278;22573;-62
2023/03/10 05:36:02;;;;;;;;;;;;;;;;;;;;;
2023/03/10 05:39:49;;;;;;;;;;;;;;;;;;;;;
2023/03/10 05:43:39;;;;;;;16.40;9.70;;;;;;;2.45;88.31;94503.66;110135;1278;22202;-62
2023/03/10 05:47:19;;;;;;;4.70;2.10;;;;;;;2.61;88.42;94500.80;110288;1278;22186;-62
2023/03/10 06:02:19;;;;;;;3.20;2.20;;;;;;;3.20;87.96;94494.50;110173;1278;22135;-62
2023/03/10 06:06:08;;;;;;;13.30;9.10;;;;;;;3.26;87.89;94495.32;110278;1278;22135;-63
2023/03/10 06:13:38;;;;;;;;;;;;;;;;;;;;;
2023/03/10 06:17:29;;;;;;;116.40;65.80;;;;;;;3.52;87.21;94488.48;110120;1278;22141;-67
2023/03/10 06:21:10;;;;;;;;;;;;;;;;;;;;;
2023/03/10 06:24:44;;;;;;;9.20;5.10;;;;;;;3.41;86.58;94478.15;110097;1278;22148;-62
2023/03/10 06:28:36;;;;;;;;;;;;;;;;;;;;;
2023/03/10 06:36:04;;;;;;;60.10;36.80;;;;;;;3.45;86.91;94472.02;110275;1278;22295;-64
2023/03/10 06:43:45;;;;;;;;;;;;;;;;;;;;;
2023/03/10 06:47:16;;;;;;;32.80;14.30;;;;;;;3.58;87.10;94465.83;110086;1278;22832;-63
2023/03/10 06:51:06;;;;;;;52.40;32.20;;;;;;;3.78;87.67;94459.36;110224;1278;23004;-66
2023/03/10 06:54:47;;;;;;;68.60;41.60;;;;;;;3.95;87.31;94460.39;110218;1278;22247;-63
2023/03/10 06:58:37;;;;;;;51.90;33.80;;;;;;;4.14;87.28;94459.83;110156;1278;22333;-64
2023/03/10 07:02:26;;;;;;;50.10;31.90;;;;;;;4.30;87.03;94452.84;110264;1278;22114;-62
2023/03/10 07:06:15;;;;;;;70.20;42.70;;;;;;;4.52;86.83;94450.11;110180;1278;22120;-63
2023/03/10 07:09:56;;;;;;;49.60;29.40;;;;;;;4.81;87.05;94441.15;110174;1278;22158;-65
2023/03/10 07:13:17;;;;;;;;;;;;;;;;;;;;;
2023/03/10 07:17:07;;;;;;;41.60;25.00;;;;;;;5.20;85.70;94414.39;110247;1278;22472;-63
2023/03/10 07:20:51;;;;;;;43.10;27.40;;;;;;;5.37;86.45;94412.17;110117;1278;22279;-63
2023/03/10 07:23:51;;;;;;;;;;;;;;;;;;;;;
2023/03/10 07:27:41;;;;;;;46.90;28.90;;;;;;;5.98;85.81;94406.52;110246;1276;22272;-65
2023/03/10 07:31:31;;;;;;;44.90;29.70;;;;;;;6.35;86.03;94398.27;110142;1267;22341;-64
2023/03/10 07:46:30;;;;;;;24.90;16.60;;;;;;;6.98;82.07;94374.29;110162;1279;23362;-64
2023/03/10 07:50:20;;;;;;;19.10;13.10;;;;;;;7.12;82.06;94366.23;110174;1279;22235;-66
2023/03/10 07:53:50;;;;;;;25.60;16.90;;;;;;;7.29;81.98;94356.73;110173;1279;22246;-65
2023/03/10 07:57:26;;;;;;;;;;;;;;;;;;;;;
2023/03/10 08:01:06;;;;;;;;;;;;;;;;;;;;;
2023/03/10 08:08:36;;;;;;;;;;;;;;;;;;;;;
2023/03/10 08:12:05;;;;;;;15.20;11.10;;;;;;;8.01;80.34;94347.41;109907;1283;22277;-63
2023/03/10 08:15:47;;;;;;;12.10;8.60;;;;;;;8.16;79.88;94344.18;109820;1283;22342;-64
2023/03/10 08:19:36;;;;;;;8.60;6.20;;;;;;;8.37;79.68;94338.33;109886;1283;22294;-65
2023/03/10 08:23:35;;;;;;;;;;;;;;;;;;;;;
2023/03/10 08:30:58;;;;;;;11.70;7.90;;;;;;;9.12;76.72;94314.23;110031;1279;22827;-68
2023/03/10 08:34:39;;;;;;;;;;;;;;;9.40;76.08;94314.84;110120;1279;22454;-65
2023/03/10 08:38:10;;;;;;;;;;;;;;;;;;;;;
2023/03/10 08:42:06;;;;;;;5.80;2.70;;;;;;;10.15;76.56;94307.58;110160;1264;22134;-64
2023/03/10 08:45:45;;;;;;;7.40;3.40;;;;;;;10.59;71.04;94298.91;110139;1279;22171;-63
2023/03/10 08:49:27;;;;;;;7.60;2.20;;;;;;;10.86;67.80;94291.14;110132;1279;23064;-69
2023/03/10 08:52:59;;;;;;;4.70;2.40;;;;;;;11.12;67.83;94287.79;110419;1259;22207;-68
2023/03/10 08:56:17;;;;;;;;;;;;;;;;;;;;;
2023/03/10 09:03:44;;;;;;;5.50;2.20;;;;;;;11.61;68.94;94287.83;110033;1279;22211;-65
2023/03/10 09:07:16;;;;;;;10.60;5.20;;;;;;;11.78;66.48;94290.10;110144;1279;22120;-64
2023/03/10 09:10:48;;;;;;;5.30;2.80;;;;;;;11.95;66.62;94284.94;110057;1279;22170;-65
2023/03/10 09:14:23;;;;;;;4.70;3.20;;;;;;;12.18;63.71;94272.11;110096;1279;22103;-66
2023/03/10 09:18:14;;;;;;;;;;;;;;;;;;;;;
2023/03/10 09:25:17;;;;;;;3.10;1.90;;;;;;;12.72;61.23;94262.52;110045;1279;22206;-61
2023/03/10 09:29:06;;;;;;;10.00;3.40;;;;;;;13.03;62.00;94256.06;110077;1279;22186;-62
2023/03/10 09:32:23;;;;;;;2.80;1.60;;;;;;;13.33;59.76;94250.86;110099;1279;22180;-62
2023/03/10 09:35:24;;;;;;;2.00;1.30;;;;;;;13.50;58.21;94247.88;110020;1279;22361;-61
2023/03/10 09:38:14;;;;;;;5.90;2.60;;;;;;;13.61;57.49;94243.05;110175;1279;22330;-61
2023/03/10 09:40:56;;;;;;;1.40;1.10;;;;;;;13.67;57.01;94245.95;110199;1279;22225;-61
2023/03/10 09:44:00;;;;;;;3.90;1.70;;;;;;;13.82;58.87;94240.40;110030;1279;22145;-62
2023/03/10 09:47:15;;;;;;;1.90;1.40;;;;;;;14.03;57.44;94233.78;110032;1268;22892;-66
2023/03/10 09:50:36;;;;;;;4.20;1.30;;;;;;;14.17;54.27;94234.82;110202;1279;22184;-64
2023/03/10 09:53:29;;;;;;;2.30;1.00;;;;;;;14.35;55.12;94229.20;109745;1287;22238;-64
2023/03/10 09:56:30;;;;;;;1.60;1.10;;;;;;;14.44;54.83;94227.16;110201;1279;22172;-65
2023/03/10 09:59:33;;;;;;;1.60;1.30;;;;;;;14.27;53.72;94227.70;110074;1279;22177;-65
2023/03/10 10:02:40;;;;;;;1.30;1.00;;;;;;;14.03;53.51;94228.49;110051;1279;22872;-66
2023/03/10 10:05:32;;;;;;;1.80;1.20;;;;;;;13.82;54.28;94226.75;110184;1279;22121;-68
2023/03/10 10:08:19;;;;;;;3.60;1.20;;;;;;;13.75;55.50;94224.48;110162;1279;22358;-68
2023/03/10 10:11:30;;;;;;;;;;;;;;;;;;;;;
2023/03/10 10:14:31;;;;;;;2.40;1.10;;;;;;;13.68;55.13;94205.27;110158;1279;22861;-68
2023/03/10 10:17:31;;;;;;;3.30;1.10;;;;;;;13.69;55.28;94198.14;110026;1279;22298;-67
2023/03/10 10:20:57;;;;;;;1.80;0.90;;;;;;;13.76;54.08;94189.98;110154;1279;22251;-68
2023/03/10 10:23:40;;;;;;;3.00;1.50;;;;;;;13.85;54.64;94193.02;110155;1279;23013;-67
2023/03/10 10:26:31;;;;;;;2.20;1.20;;;;;;;13.90;54.16;94191.34;110176;1279;22110;-68
2023/03/10 10:29:37;;;;;;;3.10;1.60;;;;;;;13.97;54.81;94189.03;110213;1279;22426;-68
2023/03/10 10:32:34;;;;;;;1.90;1.00;;;;;;;13.99;53.87;94188.40;110162;1279;23123;-68
2023/03/10 10:35:44;;;;;;;;;;;;;;;;;;;;;
2023/03/10 10:38:24;;;;;;;7.10;3.90;;;;;;;14.09;54.13;94175.50;110067;1279;22843;-68
2023/03/10 10:41:33;;;;;;;;;;;;;;;;;;;;;
2023/03/10 10:44:18;;;;;;;3.00;1.50;;;;;;;14.29;54.28;94170.31;110055;1279;22182;-68
2023/03/10 10:46:56;;;;;;;1.50;0.90;;;;;;;14.33;53.54;94163.04;110050;1279;22146;-68
2023/03/10 10:49:58;;;;;;;5.60;2.40;;;;;;;14.31;52.76;94162.58;110215;1279;22119;-68
2023/03/10 10:52:36;;;;;;;1.00;0.90;;;;;;;14.24;53.32;94162.61;110166;1279;22120;-68
2023/03/10 10:55:35;;;;;;;4.30;2.10;;;;;;;14.24;53.86;94158.71;110200;1279;22221;-68
2023/03/10 10:58:28;;;;;;;2.90;1.30;;;;;;;14.30;52.26;94146.70;110057;1279;22141;-68
2023/03/10 11:01:07;;;;;;;3.50;2.10;;;;;;;14.38;51.45;94136.16;110034;1279;22119;-68
2023/03/10 11:04:00;;;;;;;;;;;;;;;;;;;;;
2023/03/10 11:06:34;;;;;;;2.10;1.00;;;;;;;15.05;51.14;94124.40;110201;1279;22790;-68
2023/03/10 11:09:10;;;;;;;1.60;0.80;;;;;;;15.67;50.70;94115.48;110042;1279;22143;-68
2023/03/10 11:11:51;;;;;;;1.10;0.70;;;;;;;16.03;48.82;94112.58;110187;1279;22228;-68
2023/03/10 11:14:25;;;;;;;1.30;0.80;;;;;;;16.16;48.49;94111.14;110195;1279;22137;-68
2023/03/10 11:17:02;;;;;;;0.80;0.70;;;;;;;16.40;44.99;94103.77;110209;1279;22203;-68
2023/03/10 11:19:50;;;;;;;1.20;0.70;;;;;;;16.53;45.06;94098.30;110032;1279;22980;-68
2023/03/10 11:22:38;;;;;;;1.10;0.60;;;;;;;16.48;44.98;94089.95;110179;1279;22132;-68
2023/03/10 11:25:28;;;;;;;1.60;0.90;;;;;;;16.36;44.54;94085.95;110195;1267;22901;-68
2023/03/10 11:28:22;;;;;;;3.40;0.70;;;;;;;16.26;45.16;94084.86;110039;1279;22327;-68
2023/03/10 11:31:01;;;;;;;1.20;0.60;;;;;;;16.17;44.69;94081.65;110186;1278;22154;-68
2023/03/10 11:33:57;;;;;;;2.40;1.00;;;;;;;16.19;45.73;94076.75;110197;1279;22166;-68
2023/03/10 11:36:44;;;;;;;2.20;0.90;;;;;;;16.18;43.60;94068.81;110185;1278;22268;-68
2023/03/10 11:39:28;;;;;;;0.80;0.60;;;;;;;16.17;43.47;94067.99;110023;1279;22211;-68
2023/03/10 11:42:08;;;;;;;1.30;0.60;;;;;;;16.09;43.46;94062.15;110029;1279;22267;-68
2023/03/10 11:45:47;;;;;;;1.00;0.80;;;;;;;15.98;43.68;94060.18;110067;1279;22159;-68
2023/03/10 11:48:40;;;;;;;1.50;1.00;;;;;;;15.80;41.59;94054.09;110124;1279;22884;-68
2023/03/10 11:51:28;;;;;;;5.50;3.00;;;;;;;15.64;41.82;94048.83;110191;1279;22991;-68
2023/03/10 11:54:33;;;;;;;2.60;0.80;;;;;;;15.52;40.82;94047.64;110024;1279;22983;-68
2023/03/10 11:57:23;;;;;;;2.50;1.00;;;;;;;15.49;42.16;94039.33;110046;1279;22769;-68
2023/03/10 12:00:03;;;;;;;3.10;1.50;;;;;;;15.60;42.34;94031.17;110192;1279;22202;-68
2023/03/10 12:02:43;;;;;;;3.50;1.10;;;;;;;15.55;42.14;94027.25;110017;1279;22099;-68
2023/03/10 12:05:21;;;;;;;1.90;1.30;;;;;;;15.50;42.43;94026.48;110035;1279;22112;-68
2023/03/10 12:07:57;;;;;;;3.10;1.30;;;;;;;15.32;41.34;94027.26;110201;1279;22808;-68
2023/03/10 12:10:25;;;;;;;3.30;0.90;;;;;;;15.06;41.29;94030.96;110192;1279;22128;-67
2023/03/10 12:12:54;;;;;;;0.90;0.70;;;;;;;15.00;42.36;94032.98;110200;1279;22142;-67
2023/03/10 12:15:31;;;;;;;1.80;0.80;;;;;;;14.91;42.19;94036.13;110197;1279;22109;-67
2023/03/10 12:18:04;;;;;;;3.40;1.40;;;;;;;14.86;43.47;94032.36;110029;1279;22128;-67
2023/03/10 12:20:34;;;;;;;1.60;0.90;;;;;;;14.79;43.62;94035.97;110047;1279;22912;-67
2023/03/10 12:23:09;;;;;;;6.30;2.70;;;;;;;14.73;43.14;94032.09;110030;1279;22257;-68
2023/03/10 12:25:41;;;;;;;4.50;1.80;;;;;;;14.65;43.28;94031.17;110193;1279;22248;-67
2023/03/10 12:28:28;;;;;;;5.50;2.60;;;;;;;14.55;43.80;94032.64;110187;1279;22103;-68
2023/03/10 12:31:36;;;;;;;5.30;2.70;;;;;;;14.42;44.16;94034.77;110193;1279;22722;-68
2023/03/10 12:34:27;;;;;;;;;;;;;;;;;;;;;
2023/03/10 12:37:21;;;;;;;1.30;0.90;;;;;;;13.99;48.62;94039.88;110078;1279;22109;-67
2023/03/10 12:40:03;;;;;;;3.10;0.70;;;;;;;13.84;47.30;94030.66;110204;1279;22116;-67
2023/03/10 12:42:34;;;;;;;2.00;1.20;;;;;;;13.80;48.92;94030.36;110046;1279;22109;-67
2023/03/10 12:45:28;;;;;;;4.20;1.20;;;;;;;13.77;51.93;94029.63;110196;1279;22750;-67
2023/03/10 12:48:13;;;;;;;;;;;;;;;;;;;;;
2023/03/10 12:50:51;;;;;;;1.60;1.10;;;;;;;13.84;54.92;94020.42;110216;1267;22184;-67
2023/03/10 12:53:38;;;;;;;1.20;0.70;;;;;;;13.94;53.52;94014.23;110062;1279;22903;-67
2023/03/10 12:56:33;;;;;;;1.60;1.20;;;;;;;14.22;49.67;94006.56;110209;1279;22197;-67
2023/03/10 12:59:16;;;;;;;1.70;1.30;;;;;;;14.38;50.18;93998.92;110212;1279;22127;-67
2023/03/10 13:01:52;;;;;;;1.20;1.00;;;;;;;14.59;50.66;93994.19;110046;1279;22289;-67
2023/03/10 13:04:26;;;;;;;3.20;2.00;;;;;;;14.89;48.81;93990.74;110024;1279;22604;-68
2023/03/10 13:07:06;;;;;;;;;;;;;;;;;;;;;
2023/03/10 13:09:42;;;;;;;1.40;1.10;;;;;;;15.35;46.30;93977.66;110197;1279;22199;-67
2023/03/10 13:12:23;;;;;;;1.40;1.00;;;;;;;15.41;46.06;93973.18;110187;1279;22782;-68
2023/03/10 13:14:57;;;;;;;4.10;2.80;;;;;;;15.45;46.24;93966.77;110214;1279;22198;-67
2023/03/10 13:17:32;;;;;;;1.00;0.90;;;;;;;15.54;47.11;93968.27;110191;1279;22776;-68
2023/03/10 13:20:16;;;;;;;1.40;0.90;;;;;;;15.77;47.79;93965.42;110046;1279;22992;-68
2023/03/10 13:23:00;;;;;;;1.30;1.00;;;;;;;16.13;48.29;93960.80;110053;1278;23001;-68
2023/03/10 13:25:31;;;;;;;1.00;0.90;;;;;;;16.57;47.82;93954.42;110069;1277;22807;-68
2023/03/10 13:28:09;;;;;;;0.80;0.60;;;;;;;16.85;45.04;93947.05;110067;1270;22815;-68
2023/03/10 13:30:37;;;;;;;1.20;0.80;;;;;;;16.95;45.21;93948.83;109563;1278;22291;-68
2023/03/10 13:33:19;;;;;;;1.20;1.10;;;;;;;16.86;44.18;93943.45;110221;1278;22386;-68
2023/03/10 13:35:47;;;;;;;1.10;1.00;;;;;;;17.05;43.62;93939.61;110238;1278;22120;-68
2023/03/10 13:38:16;;;;;;;1.00;1.00;;;;;;;17.21;43.42;93940.63;110044;1278;22284;-68
2023/03/10 13:40:47;;;;;;;2.70;1.10;;;;;;;17.15;42.46;93934.63;110243;1274;22197;-68
2023/03/10 13:43:34;;;;;;;2.70;1.00;;;;;;;17.21;43.41;93934.26;110048;1278;22092;-68
2023/03/10 13:46:08;;;;;;;1.20;1.10;;;;;;;17.21;42.08;93931.23;110068;1278;22122;-68
2023/03/10 13:48:39;;;;;;;1.70;1.10;;;;;;;16.93;42.28;93925.39;110055;1278;22180;-68
2023/03/10 13:51:16;;;;;;;10.60;3.10;;;;;;;16.53;42.17;93931.11;110264;1278;22076;-68
2023/03/10 13:53:51;;;;;;;11.70;7.40;;;;;;;16.20;42.98;93926.61;110241;1278;22143;-68
2023/03/10 13:56:32;;;;;;;4.50;3.00;;;;;;;16.06;43.18;93925.08;110017;1278;22113;-68
2023/03/10 13:59:02;;;;;;;13.40;9.10;;;;;;;16.09;43.18;93917.97;110210;1278;22138;-68
2023/03/10 14:01:35;;;;;;;7.70;5.20;;;;;;;16.01;42.59;93921.64;110245;1278;22126;-68
2023/03/10 14:04:07;;;;;;;34.70;21.10;;;;;;;15.84;43.17;93921.72;110237;1278;23044;-68
2023/03/10 14:06:36;;;;;;;19.70;12.20;;;;;;;16.11;43.90;93915.86;110064;1278;22803;-68
2023/03/10 14:09:19;;;;;;;18.20;11.50;;;;;;;16.19;42.77;93913.33;110049;1278;22113;-68
2023/03/10 14:11:49;;;;;;;19.10;11.60;;;;;;;16.15;42.46;93916.85;110050;1278;22822;-67
2023/03/10 14:14:30;;;;;;;9.40;6.20;;;;;;;16.12;43.44;93907.11;110248;1278;22290;-68
2023/03/10 14:17:05;;;;;;;5.70;4.10;;;;;;;16.02;43.60;93902.41;110073;1278;22585;-68
2023/03/10 14:19:43;;;;;;;1.70;1.60;;;;;;;16.11;44.38;93897.43;110046;1278;22137;-68
2023/03/10 14:22:47;;;;;;;5.20;3.40;;;;;;;16.29;43.54;93900.10;110231;1278;22152;-68
2023/03/10 14:25:16;;;;;;;;;;;;;;;16.07;43.52;93895.36;110243;1278;22379;-68
2023/03/10 14:27:53;;;;;;;5.80;3.80;;;;;;;16.01;43.36;93890.45;110056;1278;22937;-68
2023/03/10 14:30:30;;;;;;;6.30;4.90;;;;;;;16.22;43.65;93885.64;110063;1278;22161;-68
2023/03/10 14:33:00;;;;;;;10.30;8.70;;;;;;;16.13;43.75;93878.28;110033;1278;22180;-68
2023/03/10 14:35:29;;;;;;;7.60;5.90;;;;;;;16.05;44.07;93872.45;110063;1269;22177;-68
2023/03/10 14:37:57;;;;;;;17.70;11.20;;;;;;;15.90;43.87;93873.23;110270;1278;22594;-68
2023/03/10 14:40:26;;;;;;;18.40;8.30;;;;;;;15.84;44.58;93870.85;110213;1278;22302;-67
2023/03/10 14:42:59;;;;;;;26.40;13.70;;;;;;;15.65;44.91;93867.09;110238;1278;22323;-68
2023/03/10 14:45:36;;;;;;;33.10;14.40;;;;;;;15.47;45.64;93870.20;110052;1278;22116;-67
2023/03/10 14:48:14;;;;;;;10.20;6.10;;;;;;;15.31;46.32;93866.84;110075;1278;22208;-68
2023/03/10 14:50:43;;;;;;;5.80;3.50;;;;;;;15.15;46.12;93865.75;110041;1278;22260;-67
2023/03/10 14:53:18;;;;;;;10.90;5.80;;;;;;;14.98;46.50;93862.94;110065;1278;22129;-67
2023/03/10 14:55:52;;;;;;;8.10;3.40;;;;;;;14.83;46.74;93862.63;110052;1278;22113;-68
2023/03/10 14:58:28;;;;;;;9.90;4.90;;;;;;;14.76;46.89;93853.70;110066;1278;22228;-68
2023/03/10 15:00:56;;;;;;;10.10;3.90;;;;;;;14.71;47.44;93848.34;110077;1278;22771;-67
2023/03/10 15:03:36;;;;;;;11.40;5.60;;;;;;;14.68;47.61;93847.99;110270;1263;22286;-67
2023/03/10 15:06:05;;;;;;;14.00;6.80;;;;;;;14.58;47.54;93845.75;110087;1278;22120;-67
2023/03/10 15:08:56;;;;;;;;;;;;;;;;;;;;;
2023/03/10 15:11:58;;;;;;;;;;;;;;;;;;;;;
2023/03/10 15:14:37;;;;;;;24.20;9.80;;;;;;;14.16;48.17;93835.41;110216;1278;22129;-68
2023/03/10 15:17:14;;;;;;;19.80;8.40;;;;;;;14.03;48.84;93832.30;110251;1278;22123;-68
2023/03/10 15:20:23;;;;;;;26.50;7.50;;;;;;;13.88;48.37;93830.88;110247;1278;22232;-68
2023/03/10 15:23:12;;;;;;;7.60;4.00;;;;;;;13.78;49.01;93834.65;110054;1278;22141;-68
2023/03/10 15:26:20;;;;;;;9.70;4.60;;;;;;;13.66;49.68;93827.95;110251;1278;22118;-68
2023/03/10 15:29:18;;;;;;;11.10;6.30;;;;;;;13.49;49.92;93825.80;110273;1278;22105;-68
2023/03/10 15:32:01;;;;;;;10.00;5.40;;;;;;;13.37;50.51;93828.08;110076;1278;22292;-68
2023/03/10 15:34:58;;;;;;;;;;;;;;;;;;;;;
2023/03/10 15:38:27;;;;;;;6.90;4.60;;;;;;;13.16;50.93;93826.17;110301;1261;22967;-68
2023/03/10 15:41:49;;;;;;;8.10;4.50;;;;;;;13.03;50.97;93823.93;110072;1278;22140;-68
2023/03/10 15:44:42;;;;;;;6.10;3.50;;;;;;;12.90;51.28;93821.85;110288;1278;22112;-68
2023/03/10 15:47:56;;;;;;;7.30;4.30;;;;;;;12.80;51.23;93818.02;110072;1278;22323;-68
2023/03/10 15:51:25;;;;;;;8.50;5.10;;;;;;;12.69;52.17;93819.82;110265;1278;22136;-68
2023/03/10 15:54:59;;;;;;;7.90;4.90;;;;;;;12.51;52.68;93812.34;110179;1278;22163;-68
2023/03/10 15:58:13;;;;;;;10.00;7.80;;;;;;;12.37;51.84;93815.75;110181;1278;22140;-68
2023/03/10 16:01:31;;;;;;;3.30;2.60;;;;;;;12.23;54.63;93811.05;110262;1278;22864;-68
2023/03/10 16:04:50;;;;;;;5.90;2.30;;;;;;;11.97;57.02;93809.95;110270;1278;22093;-67
2023/03/10 16:08:18;;;;;;;;;;;;;;;;;;;;;
2023/03/10 16:11:31;;;;;;;;;;;;;;;;;;;;;
2023/03/10 16:15:19;;;;;;;2.40;1.50;;;;;;;11.40;57.24;93806.70;110053;1278;22105;-67
2023/03/10 16:18:40;;;;;;;;;;;;;;;;;;;;;
2023/03/10 16:21:58;;;;;;;1.60;1.10;;;;;;;10.98;60.24;93805.05;110259;1278;22193;-67
2023/03/10 16:25:48;;;;;;;3.40;1.70;;;;;;;10.82;59.67;93801.79;110159;1278;22186;-67
2023/03/10 16:29:07;;;;;;;2.90;2.20;;;;;;;10.60;61.81;93792.83;110125;1278;22214;-67
2023/03/10 16:32:36;;;;;;;;;;;;;;;;;;;;;
2023/03/10 16:36:19;;;;;;;4.50;2.70;;;;;;;10.30;61.10;93803.90;110270;1278;22845;-67
2023/03/10 16:39:15;;;;;;;5.10;2.00;;;;;;;10.15;62.63;93807.35;110249;1278;22144;-67
2023/03/10 16:42:53;;;;;;;;;;;;;;;;;;;;;
2023/03/10 16:46:43;;;;;;;;;;;;;;;;;;;;;
2023/03/10 16:50:11;;;;;;;;;;;;;;;;;;;;;
2023/03/10 16:53:43;;;;;;;3.50;1.30;;;;;;;9.65;63.18;93801.52;110264;1278;22845;-67
2023/03/10 16:56:46;;;;;;;1.90;1.20;;;;;;;9.56;63.87;93803.48;110273;1278;22733;-66
2023/03/10 16:59:56;;;;;;;2.80;1.00;;;;;;;9.52;63.53;93795.77;110068;1278;22338;-66
2023/03/10 17:03:10;;;;;;;2.40;1.60;;;;;;;9.50;63.41;93795.31;110277;1278;22114;-66
2023/03/10 17:06:46;;;;;;;;;;;;;;;;;;;;;
2023/03/10 17:10:09;;;;;;;2.00;1.30;;;;;;;9.27;64.72;93795.05;110271;1278;22125;-66
2023/03/10 17:14:08;;;;;;;;;;;;;;;;;;;;;
2023/03/10 17:17:37;;;;;;;1.40;1.00;;;;;;;9.11;68.13;93789.75;110137;1278;22135;-67
2023/03/10 17:21:11;;;;;;;;;;;;;;;;;;;;;
2023/03/10 17:24:30;;;;;;;2.70;1.00;;;;;;;9.00;66.67;93786.36;110301;1278;22212;-66
2023/03/10 17:27:51;;;;;;;0.90;0.80;;;;;;;8.96;68.17;93786.72;110268;1278;22222;-66
2023/03/10 17:31:30;;;;;;;3.90;1.30;;;;;;;8.84;68.93;93787.19;110303;1278;22154;-66
2023/03/10 17:34:37;;;;;;;3.60;0.70;;;;;;;8.87;68.47;93784.97;110154;1278;22149;-66
2023/03/10 17:37:45;;;;;;;1.80;1.00;;;;;;;8.95;68.47;93777.27;110097;1278;22202;-66
2023/03/10 17:40:58;;;;;;;5.90;2.40;;;;;;;9.01;68.89;93768.45;110291;1278;22878;-66
2023/03/10 17:44:10;;;;;;;7.10;4.50;;;;;;;8.96;69.43;93763.58;110299;1278;22103;-66
2023/03/10 17:47:29;;;;;;;;;;;;;;;;;;;;;
2023/03/10 17:50:52;;;;;;;78.80;46.10;;;;;;;8.95;69.78;93750.64;110297;1278;22784;-66
2023/03/10 17:54:23;;;;;;;17.70;10.10;;;;;;;9.00;70.03;93746.19;110153;1278;22166;-66
2023/03/10 17:57:45;;;;;;;44.70;28.50;;;;;;;8.96;70.25;93744.98;110266;1278;22142;-66
2023/03/10 18:01:10;;;;;;;3.40;1.90;;;;;;;8.96;70.15;93742.38;110272;1278;22123;-66
2023/03/10 18:04:34;;;;;;;;;;;;;;;;;;;;;
2023/03/10 18:07:57;;;;;;;6.80;4.50;;;;;;;9.05;69.66;93734.77;110301;1278;22143;-66
2023/03/10 18:11:24;;;;;;;1.60;1.30;;;;;;;9.03;69.96;93732.38;110182;1278;23161;-66
2023/03/10 18:18:04;;;;;;;;;;;;;;;;;;;;;
2023/03/10 18:21:31;;;;;;;15.20;9.80;;;;;;;8.88;70.17;93713.40;110299;1271;22169;-66